Aérodrome :
LOGIN :

S'inscrire | Disclaimer

   EN    FR    IT 

 










Légende :    VFR   VFR Marginal   IFR   IFR Intensif   IFR Très Intensif
Visi : 
Plafond : 
>= 8 km
>= 3000ft
5 à 8 km
1000 à 3000 ft
1500m à 5 km
500 à 1000 ft
800 à 1500m
200 à 500 ft
< 800m
< 200 ft
Symboles :   Orages  Brouillard  Fortes neiges  Fortes précipitations  Vent > 20 kt
SIGMETs :   Divers  Orages  Givrage  Turbulence  Onde Orograph.  Cendres Volcan.






- Altitude de l'aérodrome : 75 ft
- Code IATA : YEO


EGDY - RNAS Yeovilton

DERNIER METAR :
  • 182150Z 21013KT 5000 -RADZ BKN007 OVC040 10/10 Q1012 NOSIG RMK GRN GRN

METARs EXPIRÉS :
  • 182120Z 21015KT 5000 -RADZ BKN007 OVC040 10/10 Q1013 NOSIG RMK GRN GRN
  • 182050Z 20011KT 5000 -RADZ BKN007 OVC040 10/10 Q1013 NOSIG RMK GRN GRN
  • 182020Z 19010KT 5000 -RADZ BKN007 OVC040 10/09 Q1014 NOSIG RMK GRN GRN
  • 181950Z 19010KT 6000 -RADZ BKN007 OVC040 10/09 Q1015 GRN NOSIG RMK GRN GRN
  • 181920Z 19013KT 9999 BKN007 OVC040 10/09 Q1015 GRN NOSIG RMK GRN GRN

TAF TAF EGDY
Valide du 18 à 15h jusqu'au 19 à 00h UTC


181405Z 1815/1824 22008KT 9999 SCT018
BECMG 1815/1817 SCT010
TEMPO 1816/1821 8000 -RA
PROB40
TEMPO 1816/1821 4000 RADZ SCT005 OVC010
BECMG 1820/1822 22015G25KT
TEMPO 1821/1824 5000 RA SCT007
PROB40
TEMPO 1821/1824 3500 +RA SCT005



MET'MAP, la Météo Aéronautique d'un coup d'oeil ! - Copyright ORBIFLY Décembre 2007 - Disclaimer

ORBIFLY MET'MAP TEAM :

Programmation & Développement : Alexandra Zaïnal
Sur une idée originale de : Baudouin d'Aumeries
Assistance à la programmation : Marc-Olivier Méhu
Soutien technique & logistique : Manuel Goepfert

Contact : metmap@orbifly.com




SOURCES & CREDITS :

   NOAA